sensor_id;sensor_type;location;lat;lon;timestamp;P1;durP1;ratioP1;P2;durP2;ratioP2
30149;SDS011;16962;48.646;9.026;2024-01-30T00:00:22;14.60;;;6.75;;
30149;SDS011;16962;48.646;9.026;2024-01-30T00:03:24;12.00;;;7.35;;
30149;SDS011;16962;48.646;9.026;2024-01-30T00:06:22;12.68;;;7.05;;
30149;SDS011;16962;48.646;9.026;2024-01-30T00:09:20;10.70;;;6.50;;
30149;SDS011;16962;48.646;9.026;2024-01-30T00:12:24;12.13;;;7.03;;
30149;SDS011;16962;48.646;9.026;2024-01-30T00:15:32;10.40;;;7.13;;
30149;SDS011;16962;48.646;9.026;2024-01-30T00:18:51;12.10;;;7.05;;
30149;SDS011;16962;48.646;9.026;2024-01-30T00:21:52;9.55;;;6.60;;
30149;SDS011;16962;48.646;9.026;2024-01-30T00:24:56;13.73;;;7.10;;
30149;SDS011;16962;48.646;9.026;2024-01-30T00:27:52;10.15;;;7.57;;
30149;SDS011;16962;48.646;9.026;2024-01-30T00:30:53;11.13;;;6.32;;
30149;SDS011;16962;48.646;9.026;2024-01-30T00:33:44;11.85;;;7.30;;
30149;SDS011;16962;48.646;9.026;2024-01-30T00:36:45;11.30;;;7.35;;
30149;SDS011;16962;48.646;9.026;2024-01-30T00:39:39;11.90;;;6.97;;
30149;SDS011;16962;48.646;9.026;2024-01-30T00:42:31;10.40;;;7.03;;
30149;SDS011;16962;48.646;9.026;2024-01-30T00:45:28;11.13;;;6.75;;
30149;SDS011;16962;48.646;9.026;2024-01-30T00:48:24;11.80;;;6.88;;
30149;SDS011;16962;48.646;9.026;2024-01-30T00:51:39;12.40;;;7.28;;
30149;SDS011;16962;48.646;9.026;2024-01-30T00:54:38;15.18;;;7.10;;
30149;SDS011;16962;48.646;9.026;2024-01-30T00:57:43;15.10;;;7.63;;
30149;SDS011;16962;48.646;9.026;2024-01-30T01:00:52;13.23;;;8.15;;
30149;SDS011;16962;48.646;9.026;2024-01-30T01:03:50;11.65;;;7.45;;
30149;SDS011;16962;48.646;9.026;2024-01-30T01:06:59;13.13;;;7.83;;
30149;SDS011;16962;48.646;9.026;2024-01-30T01:10:05;14.65;;;7.72;;
30149;SDS011;16962;48.646;9.026;2024-01-30T01:13:10;11.30;;;7.32;;
30149;SDS011;16962;48.646;9.026;2024-01-30T01:16:28;11.68;;;7.30;;
30149;SDS011;16962;48.646;9.026;2024-01-30T01:19:25;14.73;;;8.68;;
30149;SDS011;16962;48.646;9.026;2024-01-30T01:22:32;11.55;;;7.93;;
30149;SDS011;16962;48.646;9.026;2024-01-30T01:25:41;12.80;;;7.13;;
30149;SDS011;16962;48.646;9.026;2024-01-30T01:28:31;12.02;;;7.75;;
30149;SDS011;16962;48.646;9.026;2024-01-30T01:31:26;14.85;;;8.27;;
30149;SDS011;16962;48.646;9.026;2024-01-30T01:34:22;13.18;;;7.35;;
30149;SDS011;16962;48.646;9.026;2024-01-30T01:37:16;13.68;;;7.50;;
30149;SDS011;16962;48.646;9.026;2024-01-30T01:40:30;10.60;;;6.97;;
30149;SDS011;16962;48.646;9.026;2024-01-30T01:43:29;12.45;;;7.30;;
30149;SDS011;16962;48.646;9.026;2024-01-30T01:46:37;9.15;;;6.57;;
30149;SDS011;16962;48.646;9.026;2024-01-30T01:50:08;13.95;;;7.25;;
30149;SDS011;16962;48.646;9.026;2024-01-30T01:53:06;11.45;;;7.72;;
30149;SDS011;16962;48.646;9.026;2024-01-30T01:56:06;13.77;;;7.82;;
30149;SDS011;16962;48.646;9.026;2024-01-30T01:59:07;15.85;;;7.90;;
30149;SDS011;16962;48.646;9.026;2024-01-30T02:02:06;13.57;;;7.82;;
30149;SDS011;16962;48.646;9.026;2024-01-30T02:05:19;13.35;;;8.00;;
30149;SDS011;16962;48.646;9.026;2024-01-30T02:08:24;13.57;;;7.55;;
30149;SDS011;16962;48.646;9.026;2024-01-30T02:11:24;12.10;;;6.88;;
30149;SDS011;16962;48.646;9.026;2024-01-30T02:14:28;11.02;;;6.85;;
30149;SDS011;16962;48.646;9.026;2024-01-30T02:17:25;12.43;;;7.78;;
30149;SDS011;16962;48.646;9.026;2024-01-30T02:23:49;12.57;;;7.13;;
30149;SDS011;16962;48.646;9.026;2024-01-30T02:26:47;10.15;;;6.75;;
30149;SDS011;16962;48.646;9.026;2024-01-30T02:29:58;14.98;;;7.03;;
30149;SDS011;16962;48.646;9.026;2024-01-30T02:32:54;9.05;;;6.10;;
30149;SDS011;16962;48.646;9.026;2024-01-30T02:35:58;12.75;;;6.18;;
30149;SDS011;16962;48.646;9.026;2024-01-30T02:38:55;8.18;;;5.88;;
30149;SDS011;16962;48.646;9.026;2024-01-30T02:41:49;11.15;;;5.80;;
30149;SDS011;16962;48.646;9.026;2024-01-30T02:44:53;12.15;;;6.43;;
30149;SDS011;16962;48.646;9.026;2024-01-30T02:47:57;10.68;;;6.40;;
30149;SDS011;16962;48.646;9.026;2024-01-30T02:50:52;8.98;;;6.35;;
30149;SDS011;16962;48.646;9.026;2024-01-30T02:53:52;11.80;;;6.60;;
30149;SDS011;16962;48.646;9.026;2024-01-30T02:56:52;10.55;;;6.15;;
30149;SDS011;16962;48.646;9.026;2024-01-30T03:00:13;9.32;;;6.20;;
30149;SDS011;16962;48.646;9.026;2024-01-30T03:03:10;10.50;;;6.90;;
30149;SDS011;16962;48.646;9.026;2024-01-30T03:06:16;9.82;;;6.70;;
30149;SDS011;16962;48.646;9.026;2024-01-30T03:09:08;11.23;;;6.75;;
30149;SDS011;16962;48.646;9.026;2024-01-30T03:12:02;9.57;;;6.18;;
30149;SDS011;16962;48.646;9.026;2024-01-30T03:15:15;8.60;;;6.35;;
30149;SDS011;16962;48.646;9.026;2024-01-30T03:18:19;11.23;;;6.10;;
30149;SDS011;16962;48.646;9.026;2024-01-30T03:21:50;14.18;;;7.35;;
30149;SDS011;16962;48.646;9.026;2024-01-30T03:24:51;10.98;;;7.15;;
30149;SDS011;16962;48.646;9.026;2024-01-30T03:27:48;15.23;;;7.28;;
30149;SDS011;16962;48.646;9.026;2024-01-30T03:30:44;11.88;;;7.25;;
30149;SDS011;16962;48.646;9.026;2024-01-30T03:33:47;11.30;;;6.68;;
30149;SDS011;16962;48.646;9.026;2024-01-30T03:36:37;13.65;;;7.20;;
30149;SDS011;16962;48.646;9.026;2024-01-30T03:39:39;12.02;;;6.88;;
30149;SDS011;16962;48.646;9.026;2024-01-30T03:42:40;10.02;;;6.40;;
30149;SDS011;16962;48.646;9.026;2024-01-30T03:45:56;10.82;;;5.93;;
30149;SDS011;16962;48.646;9.026;2024-01-30T03:49:01;9.20;;;5.97;;
30149;SDS011;16962;48.646;9.026;2024-01-30T03:51:51;10.02;;;6.10;;
30149;SDS011;16962;48.646;9.026;2024-01-30T03:54:50;9.50;;;6.18;;
30149;SDS011;16962;48.646;9.026;2024-01-30T03:57:47;8.60;;;5.90;;
30149;SDS011;16962;48.646;9.026;2024-01-30T04:01:05;10.38;;;6.03;;
30149;SDS011;16962;48.646;9.026;2024-01-30T04:04:26;9.82;;;6.30;;
30149;SDS011;16962;48.646;9.026;2024-01-30T04:07:43;11.27;;;5.82;;
30149;SDS011;16962;48.646;9.026;2024-01-30T04:10:51;9.90;;;6.13;;
30149;SDS011;16962;48.646;9.026;2024-01-30T04:14:25;9.43;;;5.97;;
30149;SDS011;16962;48.646;9.026;2024-01-30T04:17:34;6.82;;;5.25;;
30149;SDS011;16962;48.646;9.026;2024-01-30T04:20:45;11.00;;;7.30;;
30149;SDS011;16962;48.646;9.026;2024-01-30T04:23:41;13.30;;;7.00;;
30149;SDS011;16962;48.646;9.026;2024-01-30T04:26:43;11.40;;;7.50;;
30149;SDS011;16962;48.646;9.026;2024-01-30T04:29:34;11.80;;;7.50;;
30149;SDS011;16962;48.646;9.026;2024-01-30T04:33:15;12.82;;;7.65;;
30149;SDS011;16962;48.646;9.026;2024-01-30T04:36:28;12.32;;;7.63;;
30149;SDS011;16962;48.646;9.026;2024-01-30T04:43:10;12.40;;;7.32;;
30149;SDS011;16962;48.646;9.026;2024-01-30T04:46:09;11.63;;;7.32;;
30149;SDS011;16962;48.646;9.026;2024-01-30T04:49:13;11.27;;;6.63;;
30149;SDS011;16962;48.646;9.026;2024-01-30T04:52:10;12.95;;;7.57;;
30149;SDS011;16962;48.646;9.026;2024-01-30T04:55:14;111.55;;;54.95;;
30149;SDS011;16962;48.646;9.026;2024-01-30T04:58:25;60.17;;;28.25;;
30149;SDS011;16962;48.646;9.026;2024-01-30T05:01:18;36.10;;;20.35;;
30149;SDS011;16962;48.646;9.026;2024-01-30T05:04:19;19.10;;;11.02;;
30149;SDS011;16962;48.646;9.026;2024-01-30T05:07:43;21.30;;;12.57;;
30149;SDS011;16962;48.646;9.026;2024-01-30T05:10:37;17.42;;;10.73;;
30149;SDS011;16962;48.646;9.026;2024-01-30T05:13:39;13.88;;;8.75;;
30149;SDS011;16962;48.646;9.026;2024-01-30T05:16:48;14.95;;;8.60;;
30149;SDS011;16962;48.646;9.026;2024-01-30T05:19:43;16.42;;;8.68;;
30149;SDS011;16962;48.646;9.026;2024-01-30T05:22:47;15.20;;;9.13;;
30149;SDS011;16962;48.646;9.026;2024-01-30T05:25:48;12.18;;;8.18;;
30149;SDS011;16962;48.646;9.026;2024-01-30T05:29:01;20.00;;;9.27;;
30149;SDS011;16962;48.646;9.026;2024-01-30T05:31:55;13.93;;;8.13;;
30149;SDS011;16962;48.646;9.026;2024-01-30T05:35:06;13.57;;;7.88;;
30149;SDS011;16962;48.646;9.026;2024-01-30T05:38:10;17.25;;;9.43;;
30149;SDS011;16962;48.646;9.026;2024-01-30T05:41:18;15.15;;;8.98;;
30149;SDS011;16962;48.646;9.026;2024-01-30T05:44:26;12.77;;;8.57;;
30149;SDS011;16962;48.646;9.026;2024-01-30T05:47:22;14.25;;;8.82;;
30149;SDS011;16962;48.646;9.026;2024-01-30T05:50:19;15.02;;;8.77;;
30149;SDS011;16962;48.646;9.026;2024-01-30T05:53:14;13.52;;;9.25;;
30149;SDS011;16962;48.646;9.026;2024-01-30T05:56:05;17.15;;;9.98;;
30149;SDS011;16962;48.646;9.026;2024-01-30T05:59:05;19.13;;;10.38;;
30149;SDS011;16962;48.646;9.026;2024-01-30T06:01:54;20.05;;;11.85;;
30149;SDS011;16962;48.646;9.026;2024-01-30T06:04:49;17.27;;;9.30;;
30149;SDS011;16962;48.646;9.026;2024-01-30T06:07:48;16.67;;;10.82;;
30149;SDS011;16962;48.646;9.026;2024-01-30T06:11:23;16.70;;;9.27;;
30149;SDS011;16962;48.646;9.026;2024-01-30T06:15:11;18.50;;;9.57;;
30149;SDS011;16962;48.646;9.026;2024-01-30T06:22:12;19.55;;;9.57;;
30149;SDS011;16962;48.646;9.026;2024-01-30T06:25:40;15.65;;;9.35;;
30149;SDS011;16962;48.646;9.026;2024-01-30T06:32:25;13.30;;;8.13;;
30149;SDS011;16962;48.646;9.026;2024-01-30T06:35:29;15.98;;;8.35;;
30149;SDS011;16962;48.646;9.026;2024-01-30T06:42:21;23.90;;;11.15;;
30149;SDS011;16962;48.646;9.026;2024-01-30T06:46:02;18.77;;;11.38;;
30149;SDS011;16962;48.646;9.026;2024-01-30T06:49:15;14.32;;;10.07;;
30149;SDS011;16962;48.646;9.026;2024-01-30T06:53:06;14.80;;;9.32;;
30149;SDS011;16962;48.646;9.026;2024-01-30T06:56:32;15.48;;;8.90;;
30149;SDS011;16962;48.646;9.026;2024-01-30T07:00:28;23.85;;;9.48;;
30149;SDS011;16962;48.646;9.026;2024-01-30T07:03:43;12.85;;;8.25;;
30149;SDS011;16962;48.646;9.026;2024-01-30T07:06:34;13.82;;;8.70;;
30149;SDS011;16962;48.646;9.026;2024-01-30T07:09:37;12.65;;;7.45;;
30149;SDS011;16962;48.646;9.026;2024-01-30T07:12:57;11.48;;;6.95;;
30149;SDS011;16962;48.646;9.026;2024-01-30T07:16:00;11.93;;;7.20;;
30149;SDS011;16962;48.646;9.026;2024-01-30T07:19:05;11.23;;;6.75;;
30149;SDS011;16962;48.646;9.026;2024-01-30T07:22:47;10.98;;;6.05;;
30149;SDS011;16962;48.646;9.026;2024-01-30T07:26:08;9.85;;;5.18;;
30149;SDS011;16962;48.646;9.026;2024-01-30T07:29:12;10.85;;;6.00;;
30149;SDS011;16962;48.646;9.026;2024-01-30T07:32:40;11.13;;;5.63;;
30149;SDS011;16962;48.646;9.026;2024-01-30T07:35:59;9.77;;;5.78;;
30149;SDS011;16962;48.646;9.026;2024-01-30T07:46:54;9.48;;;5.65;;
30149;SDS011;16962;48.646;9.026;2024-01-30T07:51:01;10.32;;;6.28;;
30149;SDS011;16962;48.646;9.026;2024-01-30T07:54:23;11.98;;;5.97;;
30149;SDS011;16962;48.646;9.026;2024-01-30T07:57:38;13.18;;;6.72;;
30149;SDS011;16962;48.646;9.026;2024-01-30T08:01:02;10.05;;;6.75;;
30149;SDS011;16962;48.646;9.026;2024-01-30T08:04:23;16.13;;;6.53;;
30149;SDS011;16962;48.646;9.026;2024-01-30T08:07:54;12.60;;;7.63;;
30149;SDS011;16962;48.646;9.026;2024-01-30T08:11:06;13.77;;;7.45;;
30149;SDS011;16962;48.646;9.026;2024-01-30T08:15:03;10.75;;;6.90;;
30149;SDS011;16962;48.646;9.026;2024-01-30T08:22:23;10.75;;;6.57;;
30149;SDS011;16962;48.646;9.026;2024-01-30T08:25:59;12.20;;;6.93;;
30149;SDS011;16962;48.646;9.026;2024-01-30T08:29:02;10.68;;;6.90;;
30149;SDS011;16962;48.646;9.026;2024-01-30T08:31:58;14.80;;;7.65;;
30149;SDS011;16962;48.646;9.026;2024-01-30T08:46:47;13.40;;;7.30;;
30149;SDS011;16962;48.646;9.026;2024-01-30T08:50:29;10.82;;;6.32;;
30149;SDS011;16962;48.646;9.026;2024-01-30T08:54:04;14.43;;;6.72;;
30149;SDS011;16962;48.646;9.026;2024-01-30T08:57:30;9.70;;;6.03;;
30149;SDS011;16962;48.646;9.026;2024-01-30T09:01:23;14.60;;;6.60;;
30149;SDS011;16962;48.646;9.026;2024-01-30T09:05:01;7.15;;;5.13;;
30149;SDS011;16962;48.646;9.026;2024-01-30T09:08:44;8.88;;;5.47;;
30149;SDS011;16962;48.646;9.026;2024-01-30T09:12:09;9.75;;;5.78;;
30149;SDS011;16962;48.646;9.026;2024-01-30T09:19:33;8.60;;;4.88;;
30149;SDS011;16962;48.646;9.026;2024-01-30T09:26:46;11.02;;;5.65;;
30149;SDS011;16962;48.646;9.026;2024-01-30T09:30:08;10.23;;;6.90;;
30149;SDS011;16962;48.646;9.026;2024-01-30T09:33:57;13.32;;;6.70;;
30149;SDS011;16962;48.646;9.026;2024-01-30T09:45:33;7.95;;;5.57;;
30149;SDS011;16962;48.646;9.026;2024-01-30T09:49:05;6.50;;;4.57;;
30149;SDS011;16962;48.646;9.026;2024-01-30T09:52:26;12.13;;;5.55;;
30149;SDS011;16962;48.646;9.026;2024-01-30T09:56:08;9.30;;;5.55;;
30149;SDS011;16962;48.646;9.026;2024-01-30T10:03:32;9.27;;;3.28;;
30149;SDS011;16962;48.646;9.026;2024-01-30T10:10:37;6.78;;;3.35;;
30149;SDS011;16962;48.646;9.026;2024-01-30T10:13:59;4.60;;;2.60;;
30149;SDS011;16962;48.646;9.026;2024-01-30T10:17:31;3.63;;;2.72;;
30149;SDS011;16962;48.646;9.026;2024-01-30T10:32:58;6.60;;;2.92;;
30149;SDS011;16962;48.646;9.026;2024-01-30T10:40:16;6.55;;;3.05;;
30149;SDS011;16962;48.646;9.026;2024-01-30T10:51:56;5.25;;;2.72;;
30149;SDS011;16962;48.646;9.026;2024-01-30T10:59:26;3.53;;;2.30;;
30149;SDS011;16962;48.646;9.026;2024-01-30T11:03:01;6.85;;;2.50;;
30149;SDS011;16962;48.646;9.026;2024-01-30T12:03:56;4.88;;;2.80;;
30149;SDS011;16962;48.646;9.026;2024-01-30T12:07:08;5.13;;;2.80;;
30149;SDS011;16962;48.646;9.026;2024-01-30T12:10:57;3.22;;;2.40;;
30149;SDS011;16962;48.646;9.026;2024-01-30T12:13:59;4.22;;;2.63;;
30149;SDS011;16962;48.646;9.026;2024-01-30T12:17:35;6.30;;;3.05;;
30149;SDS011;16962;48.646;9.026;2024-01-30T12:21:04;4.00;;;2.78;;
30149;SDS011;16962;48.646;9.026;2024-01-30T12:24:20;6.10;;;3.20;;
30149;SDS011;16962;48.646;9.026;2024-01-30T12:27:30;4.90;;;2.38;;
30149;SDS011;16962;48.646;9.026;2024-01-30T12:31:14;7.35;;;3.08;;
30149;SDS011;16962;48.646;9.026;2024-01-30T12:34:43;6.25;;;2.70;;
30149;SDS011;16962;48.646;9.026;2024-01-30T12:37:50;5.65;;;2.92;;
30149;SDS011;16962;48.646;9.026;2024-01-30T12:41:04;3.45;;;2.88;;
30149;SDS011;16962;48.646;9.026;2024-01-30T12:44:34;5.88;;;2.92;;
30149;SDS011;16962;48.646;9.026;2024-01-30T12:52:05;4.90;;;2.97;;
30149;SDS011;16962;48.646;9.026;2024-01-30T12:55:20;5.30;;;2.90;;
30149;SDS011;16962;48.646;9.026;2024-01-30T13:01:57;5.68;;;2.47;;
30149;SDS011;16962;48.646;9.026;2024-01-30T13:05:04;3.78;;;2.63;;
30149;SDS011;16962;48.646;9.026;2024-01-30T13:12:13;6.75;;;3.65;;
30149;SDS011;16962;48.646;9.026;2024-01-30T13:22:01;7.68;;;2.08;;
30149;SDS011;16962;48.646;9.026;2024-01-30T13:28:38;5.93;;;3.00;;
30149;SDS011;16962;48.646;9.026;2024-01-30T13:32:06;4.63;;;2.90;;
30149;SDS011;16962;48.646;9.026;2024-01-30T13:35:13;7.63;;;2.78;;
30149;SDS011;16962;48.646;9.026;2024-01-30T13:38:38;4.55;;;2.15;;
30149;SDS011;16962;48.646;9.026;2024-01-30T13:41:46;3.85;;;2.40;;
30149;SDS011;16962;48.646;9.026;2024-01-30T13:48:35;3.50;;;2.58;;
30149;SDS011;16962;48.646;9.026;2024-01-30T13:55:47;8.70;;;3.30;;
30149;SDS011;16962;48.646;9.026;2024-01-30T13:59:12;5.10;;;3.20;;
30149;SDS011;16962;48.646;9.026;2024-01-30T14:02:29;5.60;;;2.95;;
30149;SDS011;16962;48.646;9.026;2024-01-30T14:10:00;5.15;;;3.15;;
30149;SDS011;16962;48.646;9.026;2024-01-30T14:13:23;5.45;;;3.00;;
30149;SDS011;16962;48.646;9.026;2024-01-30T14:21:30;8.18;;;3.30;;
30149;SDS011;16962;48.646;9.026;2024-01-30T14:24:59;7.13;;;3.67;;
30149;SDS011;16962;48.646;9.026;2024-01-30T14:28:29;4.72;;;3.20;;
30149;SDS011;16962;48.646;9.026;2024-01-30T14:31:48;7.28;;;3.72;;
30149;SDS011;16962;48.646;9.026;2024-01-30T14:35:22;9.32;;;3.90;;
30149;SDS011;16962;48.646;9.026;2024-01-30T14:39:15;7.57;;;3.50;;
30149;SDS011;16962;48.646;9.026;2024-01-30T14:47:17;7.93;;;3.30;;
30149;SDS011;16962;48.646;9.026;2024-01-30T14:54:09;6.05;;;3.65;;
30149;SDS011;16962;48.646;9.026;2024-01-30T14:57:31;4.90;;;3.20;;
30149;SDS011;16962;48.646;9.026;2024-01-30T15:01:19;8.68;;;3.47;;
30149;SDS011;16962;48.646;9.026;2024-01-30T15:08:45;8.25;;;3.97;;
30149;SDS011;16962;48.646;9.026;2024-01-30T15:12:31;10.70;;;4.53;;
30149;SDS011;16962;48.646;9.026;2024-01-30T15:19:53;6.32;;;3.60;;
30149;SDS011;16962;48.646;9.026;2024-01-30T15:22:57;6.13;;;3.58;;
30149;SDS011;16962;48.646;9.026;2024-01-30T15:26:45;6.78;;;3.72;;
30149;SDS011;16962;48.646;9.026;2024-01-30T15:30:25;8.95;;;3.65;;
30149;SDS011;16962;48.646;9.026;2024-01-30T15:48:31;8.95;;;3.95;;
30149;SDS011;16962;48.646;9.026;2024-01-30T15:51:49;10.20;;;4.22;;
30149;SDS011;16962;48.646;9.026;2024-01-30T15:55:20;7.82;;;4.30;;
30149;SDS011;16962;48.646;9.026;2024-01-30T15:58:47;14.65;;;5.40;;
30149;SDS011;16962;48.646;9.026;2024-01-30T16:12:51;11.23;;;4.13;;
30149;SDS011;16962;48.646;9.026;2024-01-30T16:16:23;6.47;;;3.80;;
30149;SDS011;16962;48.646;9.026;2024-01-30T16:20:12;8.82;;;4.32;;
30149;SDS011;16962;48.646;9.026;2024-01-30T16:24:18;7.45;;;4.22;;
30149;SDS011;16962;48.646;9.026;2024-01-30T16:31:25;8.73;;;4.85;;
30149;SDS011;16962;48.646;9.026;2024-01-30T16:34:55;8.55;;;4.57;;
30149;SDS011;16962;48.646;9.026;2024-01-30T17:02:08;10.68;;;6.18;;
30149;SDS011;16962;48.646;9.026;2024-01-30T17:05:23;9.00;;;5.93;;
30149;SDS011;16962;48.646;9.026;2024-01-30T17:08:37;13.02;;;6.65;;
30149;SDS011;16962;48.646;9.026;2024-01-30T17:11:35;10.95;;;6.38;;
30149;SDS011;16962;48.646;9.026;2024-01-30T17:14:31;10.93;;;6.38;;
30149;SDS011;16962;48.646;9.026;2024-01-30T17:17:41;12.85;;;6.13;;
30149;SDS011;16962;48.646;9.026;2024-01-30T17:20:47;13.82;;;6.03;;
30149;SDS011;16962;48.646;9.026;2024-01-30T17:23:47;9.02;;;5.75;;
30149;SDS011;16962;48.646;9.026;2024-01-30T17:26:43;9.88;;;5.55;;
30149;SDS011;16962;48.646;9.026;2024-01-30T17:29:45;9.70;;;5.55;;
30149;SDS011;16962;48.646;9.026;2024-01-30T17:36:00;7.35;;;4.97;;
30149;SDS011;16962;48.646;9.026;2024-01-30T17:39:27;9.85;;;5.78;;
30149;SDS011;16962;48.646;9.026;2024-01-30T17:42:54;6.78;;;4.30;;
30149;SDS011;16962;48.646;9.026;2024-01-30T17:45:49;10.05;;;4.47;;
30149;SDS011;16962;48.646;9.026;2024-01-30T17:48:51;8.38;;;4.70;;
30149;SDS011;16962;48.646;9.026;2024-01-30T17:51:53;6.25;;;4.97;;
30149;SDS011;16962;48.646;9.026;2024-01-30T17:55:11;6.75;;;4.38;;
30149;SDS011;16962;48.646;9.026;2024-01-30T17:58:08;4.75;;;4.03;;
30149;SDS011;16962;48.646;9.026;2024-01-30T18:01:06;7.32;;;4.40;;
30149;SDS011;16962;48.646;9.026;2024-01-30T18:04:05;12.05;;;4.95;;
30149;SDS011;16962;48.646;9.026;2024-01-30T18:07:23;12.77;;;6.38;;
30149;SDS011;16962;48.646;9.026;2024-01-30T18:10:30;16.67;;;6.25;;
30149;SDS011;16962;48.646;9.026;2024-01-30T18:13:44;10.60;;;7.07;;
30149;SDS011;16962;48.646;9.026;2024-01-30T18:16:50;11.60;;;7.60;;
30149;SDS011;16962;48.646;9.026;2024-01-30T18:19:56;13.38;;;6.07;;
30149;SDS011;16962;48.646;9.026;2024-01-30T18:22:49;13.52;;;6.10;;
30149;SDS011;16962;48.646;9.026;2024-01-30T18:26:01;16.63;;;8.07;;
30149;SDS011;16962;48.646;9.026;2024-01-30T18:29:20;16.27;;;7.63;;
30149;SDS011;16962;48.646;9.026;2024-01-30T18:32:28;13.23;;;6.68;;
30149;SDS011;16962;48.646;9.026;2024-01-30T18:35:45;10.85;;;6.35;;
30149;SDS011;16962;48.646;9.026;2024-01-30T18:39:19;13.98;;;7.75;;
30149;SDS011;16962;48.646;9.026;2024-01-30T18:42:30;12.98;;;6.88;;
30149;SDS011;16962;48.646;9.026;2024-01-30T18:45:54;13.43;;;7.07;;
30149;SDS011;16962;48.646;9.026;2024-01-30T18:49:21;19.85;;;11.65;;
30149;SDS011;16962;48.646;9.026;2024-01-30T18:52:20;12.43;;;6.50;;
30149;SDS011;16962;48.646;9.026;2024-01-30T18:55:20;10.88;;;5.68;;
30149;SDS011;16962;48.646;9.026;2024-01-30T18:58:27;10.57;;;6.28;;
30149;SDS011;16962;48.646;9.026;2024-01-30T19:02:08;12.30;;;6.60;;
30149;SDS011;16962;48.646;9.026;2024-01-30T19:05:09;10.45;;;5.82;;
30149;SDS011;16962;48.646;9.026;2024-01-30T19:08:17;9.40;;;5.60;;
30149;SDS011;16962;48.646;9.026;2024-01-30T19:11:18;10.70;;;6.28;;
30149;SDS011;16962;48.646;9.026;2024-01-30T19:14:30;10.20;;;6.55;;
30149;SDS011;16962;48.646;9.026;2024-01-30T19:17:33;11.32;;;5.85;;
30149;SDS011;16962;48.646;9.026;2024-01-30T19:20:52;12.75;;;6.82;;
30149;SDS011;16962;48.646;9.026;2024-01-30T19:24:10;10.23;;;6.38;;
30149;SDS011;16962;48.646;9.026;2024-01-30T19:27:22;8.82;;;5.70;;
30149;SDS011;16962;48.646;9.026;2024-01-30T19:30:30;12.82;;;7.15;;
30149;SDS011;16962;48.646;9.026;2024-01-30T19:33:30;14.65;;;8.02;;
30149;SDS011;16962;48.646;9.026;2024-01-30T19:36:46;14.32;;;7.47;;
30149;SDS011;16962;48.646;9.026;2024-01-30T19:39:49;14.60;;;8.45;;
30149;SDS011;16962;48.646;9.026;2024-01-30T19:42:42;12.10;;;7.38;;
30149;SDS011;16962;48.646;9.026;2024-01-30T19:45:48;10.93;;;6.63;;
30149;SDS011;16962;48.646;9.026;2024-01-30T19:53:12;18.63;;;10.38;;
30149;SDS011;16962;48.646;9.026;2024-01-30T20:20:30;11.63;;;6.78;;
30149;SDS011;16962;48.646;9.026;2024-01-30T20:23:35;17.00;;;6.78;;
30149;SDS011;16962;48.646;9.026;2024-01-30T20:26:47;11.75;;;6.97;;
30149;SDS011;16962;48.646;9.026;2024-01-30T20:30:17;13.63;;;8.10;;
30149;SDS011;16962;48.646;9.026;2024-01-30T20:33:25;20.83;;;9.52;;
30149;SDS011;16962;48.646;9.026;2024-01-30T20:36:37;12.40;;;7.13;;
30149;SDS011;16962;48.646;9.026;2024-01-30T20:39:39;11.52;;;7.20;;
30149;SDS011;16962;48.646;9.026;2024-01-30T20:42:36;10.90;;;6.10;;
30149;SDS011;16962;48.646;9.026;2024-01-30T20:45:48;9.50;;;6.47;;
30149;SDS011;16962;48.646;9.026;2024-01-30T20:49:48;9.48;;;6.00;;
30149;SDS011;16962;48.646;9.026;2024-01-30T20:53:03;10.90;;;6.65;;
